Time;durP1;ratioP1;P1;durP2;ratioP2;P2;SDS_P1;SDS_P2;PMS_P1;PMS_P2;Temp;Humidity;BMP_temperature;BMP_pressure;BME280_temperature;BME280_humidity;BME280_pressure;Samples;Min_cycle;Max_cycle;Signal;HPM_P1;HPM_P2
2021/06/05 00:00:36;;;;;;;;;9.00;8.50;;;;;24.51;46.85;101436.44;4988915;28;45552;-75
2021/06/05 00:03:02;;;;;;;;;11.50;9.75;;;;;24.51;46.57;101439.09;4980348;28;47014;-75
2021/06/05 00:05:28;;;;;;;;;10.25;9.25;;;;;24.50;46.44;101441.84;4979090;28;45465;-75
2021/06/05 00:07:56;;;;;;;;;10.00;9.25;;;;;24.49;46.30;101456.94;4979299;28;45385;-75
2021/06/05 00:10:32;;;;;;;;;10.00;10.00;;;;;24.49;46.79;101459.63;4965918;28;45426;-75
2021/06/05 00:12:58;;;;;;;;;11.50;10.00;;;;;24.49;46.66;101464.09;4966416;28;45430;-75
2021/06/05 00:15:27;;;;;;;;;9.50;9.00;;;;;24.51;46.99;101465.81;4983536;28;45201;-75
2021/06/05 00:17:52;;;;;;;;;8.75;8.75;;;;;24.50;46.76;101457.84;4983824;28;45333;-75
2021/06/05 00:20:18;;;;;;;;;9.75;9.75;;;;;24.48;46.46;101462.34;4981727;28;58111;-75
2021/06/05 00:22:43;;;;;;;;;7.75;7.75;;;;;24.47;46.92;101460.63;4965862;28;55221;-75
2021/06/05 00:25:12;;;;;;;;;8.75;8.75;;;;;24.45;46.90;101455.34;4985708;28;45331;-75
2021/06/05 00:27:37;;;;;;;;;11.00;10.00;;;;;24.44;46.51;101456.28;4985818;28;45303;-76
2021/06/05 00:30:04;;;;;;;;;12.75;9.75;;;;;24.43;46.87;101456.34;4984757;28;62088;-75
2021/06/05 00:32:29;;;;;;;;;11.00;10.50;;;;;24.40;47.01;101451.97;4979011;28;47327;-75
2021/06/05 00:34:55;;;;;;;;;8.00;8.00;;;;;24.43;47.01;101456.34;5006631;28;45235;-75
2021/06/05 00:37:28;;;;;;;;;10.50;10.50;;;;;24.40;47.42;101453.75;4985678;28;45279;-75
2021/06/05 00:39:53;;;;;;;;;7.50;7.25;;;;;24.39;46.89;101446.69;4989819;28;45251;-75
2021/06/05 00:42:18;;;;;;;;;8.50;8.25;;;;;24.37;46.76;101448.53;5011714;28;45595;-75
2021/06/05 00:44:44;;;;;;;;;11.75;11.50;;;;;24.34;46.90;101446.00;4999205;28;45474;-75
2021/06/05 00:47:09;;;;;;;;;9.50;9.00;;;;;24.33;47.33;101441.59;4992795;28;45977;-75
2021/06/05 00:49:35;;;;;;;;;12.00;12.00;;;;;24.34;47.20;101449.53;5019705;28;57049;-75
2021/06/05 00:52:05;;;;;;;;;9.75;9.25;;;;;24.34;47.39;101443.34;4987116;28;48277;-75
2021/06/05 00:54:30;;;;;;;;;11.50;10.25;;;;;24.37;46.44;101445.88;4953004;28;45491;-75
2021/06/05 00:56:58;;;;;;;;;8.00;8.00;;;;;24.33;46.65;101444.25;4968549;28;58688;-75
2021/06/05 00:59:23;;;;;;;;;11.25;10.25;;;;;24.33;46.82;101446.94;4970057;28;45761;-75
2021/06/05 01:01:49;;;;;;;;;10.50;10.00;;;;;24.32;47.41;101447.84;5012968;28;54085;-75
2021/06/05 01:04:14;;;;;;;;;11.00;10.50;;;;;24.32;47.00;101442.50;4988332;28;45336;-75
2021/06/05 01:07:04;;;;;;;;;10.75;10.00;;;;;24.31;47.64;101448.72;4968863;28;45341;-75
2021/06/05 01:10:00;;;;;;;;;14.25;12.00;;;;;24.34;47.32;101438.00;5002822;28;45159;-76
2021/06/05 01:12:48;;;;;;;;;9.25;8.25;;;;;24.34;47.29;101446.88;4985240;28;47199;-75
2021/06/05 01:15:19;;;;;;;;;12.00;10.50;;;;;24.30;47.25;101437.19;5005924;28;45440;-76
2021/06/05 01:17:47;;;;;;;;;11.00;11.00;;;;;24.29;47.51;101434.59;4984899;28;45222;-75
2021/06/05 01:20:28;;;;;;;;;10.75;10.75;;;;;24.24;47.24;101429.44;4951441;28;45447;-75
2021/06/05 01:23:09;;;;;;;;;11.50;11.25;;;;;24.23;47.05;101435.66;4976823;28;48100;-75
2021/06/05 01:25:56;;;;;;;;;12.00;12.00;;;;;24.22;47.20;101433.94;5000963;28;45453;-76
2021/06/05 01:28:32;;;;;;;;;9.50;9.50;;;;;24.18;47.27;101425.19;5000937;28;45397;-75
2021/06/05 01:30:59;;;;;;;;;11.75;11.00;;;;;24.21;47.61;101426.84;4975660;28;46088;-75
2021/06/05 01:33:25;;;;;;;;;10.00;9.00;;;;;24.20;47.43;101435.78;4972572;28;46057;-76
2021/06/05 01:35:51;;;;;;;;;11.00;10.00;;;;;24.21;47.81;101427.72;4968466;28;45254;-75
2021/06/05 01:38:16;;;;;;;;;9.00;9.00;;;;;24.21;47.24;101430.38;4982177;28;45281;-75
2021/06/05 01:40:42;;;;;;;;;10.50;9.25;;;;;24.19;47.15;101429.59;4992842;28;53704;-75
2021/06/05 01:43:08;;;;;;;;;11.50;9.00;;;;;24.18;47.59;101438.53;4969458;28;48551;-76
2021/06/05 01:45:38;;;;;;;;;10.75;8.50;;;;;24.18;48.01;101440.31;4987248;28;69160;-75
2021/06/05 01:48:04;;;;;;;;;8.00;8.00;;;;;24.16;47.91;101437.72;4968513;28;45572;-75
2021/06/05 01:50:35;;;;;;;;;11.00;9.00;;;;;24.14;47.65;101447.53;5012344;28;45246;-76
2021/06/05 01:53:04;;;;;;;;;8.50;8.50;;;;;24.17;48.08;101441.25;4969285;28;47286;-75
2021/06/05 01:55:32;;;;;;;;;11.25;9.00;;;;;24.18;47.76;101443.84;4987812;28;45837;-76
2021/06/05 01:57:59;;;;;;;;;11.25;10.50;;;;;24.18;47.48;101440.31;4987637;28;45263;-75
2021/06/05 02:00:32;;;;;;;;;11.50;10.00;;;;;24.16;47.88;101432.38;4991043;28;45487;-76
2021/06/05 02:02:57;;;;;;;;;11.00;10.00;;;;;24.14;48.08;101422.66;4988447;28;45488;-76
2021/06/05 02:05:27;;;;;;;;;11.25;8.25;;;;;24.16;47.74;101412.84;4984967;28;45352;-75
2021/06/05 02:07:53;;;;;;;;;13.75;11.25;;;;;24.17;48.28;101410.09;4968446;28;45306;-75
2021/06/05 02:10:19;;;;;;;;;12.00;11.75;;;;;24.14;47.84;101407.53;4980113;28;45580;-75
2021/06/05 02:12:44;;;;;;;;;10.50;10.00;;;;;24.11;47.32;101410.31;4987501;28;46351;-75
2021/06/05 02:15:42;;;;;;;;;10.50;9.00;;;;;24.09;47.99;101414.84;4982994;28;63576;-75
2021/06/05 02:18:09;;;;;;;;;11.00;9.25;;;;;24.09;47.99;101411.31;4984231;28;45342;-75
2021/06/05 02:20:38;;;;;;;;;9.25;9.25;;;;;24.08;47.71;101415.78;4967676;28;45507;-75
2021/06/05 02:23:05;;;;;;;;;9.25;9.25;;;;;24.05;48.03;101425.66;4963808;28;48385;-75
2021/06/05 02:25:31;;;;;;;;;11.00;10.75;;;;;24.03;47.70;101419.53;4987360;28;45231;-75
2021/06/05 02:27:59;;;;;;;;;10.00;10.00;;;;;24.01;47.59;101414.25;4983797;28;45259;-75
2021/06/05 02:30:25;;;;;;;;;11.00;10.00;;;;;24.00;48.23;101414.31;5019472;28;45297;-75
2021/06/05 02:32:50;;;;;;;;;11.25;9.50;;;;;24.00;48.24;101414.31;4966910;28;48080;-75
2021/06/05 02:35:18;;;;;;;;;12.00;11.00;;;;;24.00;47.98;101414.31;4986270;28;45437;-75
2021/06/05 02:37:44;;;;;;;;;10.50;8.75;;;;;24.00;48.19;101420.50;4967749;28;45548;-75
2021/06/05 02:40:12;;;;;;;;;14.00;11.50;;;;;23.97;48.05;101416.13;5003490;28;45317;-75
2021/06/05 02:42:38;;;;;;;;;12.50;11.50;;;;;23.95;48.15;101414.47;4986663;28;45255;-75
2021/06/05 02:45:06;;;;;;;;;13.50;12.75;;;;;23.95;48.17;101411.78;4954767;28;45654;-75
2021/06/05 02:47:31;;;;;;;;;14.50;12.50;;;;;23.93;48.05;101405.66;4968071;28;45351;-75
2021/06/05 02:49:59;;;;;;;;;14.50;12.00;;;;;23.93;47.62;101405.66;4986336;28;58473;-75
2021/06/05 02:52:30;;;;;;;;;15.75;12.75;;;;;23.92;48.27;101409.25;4973458;28;47395;-75
2021/06/05 02:55:10;;;;;;;;;14.25;13.25;;;;;23.92;48.09;101412.78;4987946;28;45381;-75
2021/06/05 02:57:35;;;;;;;;;17.75;16.50;;;;;23.92;48.08;101404.78;4971418;28;45164;-75
2021/06/05 03:00:00;;;;;;;;;15.50;13.75;;;;;23.92;47.79;101414.56;4986475;28;45466;-76
2021/06/05 03:02:26;;;;;;;;;11.50;11.50;;;;;23.87;47.89;101412.06;5003122;28;65250;-76
2021/06/05 03:04:51;;;;;;;;;15.75;15.75;;;;;23.85;48.24;101403.25;4982623;28;65467;-76
2021/06/05 03:07:17;;;;;;;;;13.75;13.00;;;;;23.85;47.92;101416.59;4983282;28;45323;-75
2021/06/05 03:09:42;;;;;;;;;14.75;14.50;;;;;23.83;48.04;101414.91;4966908;28;49087;-75
2021/06/05 03:12:09;;;;;;;;;16.75;14.00;;;;;23.82;48.39;101418.50;4982317;28;66381;-75
2021/06/05 03:14:36;;;;;;;;;16.00;14.75;;;;;23.80;48.83;101423.84;4983050;28;45294;-75
2021/06/05 03:17:02;;;;;;;;;16.75;14.25;;;;;23.84;48.07;101416.66;4983622;28;45318;-75
2021/06/05 03:19:27;;;;;;;;;17.75;15.50;;;;;23.83;48.65;101417.56;4992761;28;45262;-75
2021/06/05 03:21:52;;;;;;;;;15.75;12.25;;;;;23.79;47.78;101406.13;4982993;28;45325;-75
2021/06/05 03:24:18;;;;;;;;;16.75;14.75;;;;;23.77;48.28;101420.44;4982488;28;54992;-75
2021/06/05 03:26:43;;;;;;;;;10.75;10.75;;;;;23.76;48.23;101418.69;4983131;28;51982;-75
2021/06/05 03:29:09;;;;;;;;;14.50;14.50;;;;;23.74;48.21;101416.09;4991678;28;53692;-75
2021/06/05 03:31:34;;;;;;;;;14.50;14.50;;;;;23.74;48.43;101417.91;4965776;28;63874;-75
2021/06/05 03:33:59;;;;;;;;;14.75;14.00;;;;;23.72;48.44;101417.06;4983172;28;45463;-75
2021/06/05 03:36:26;;;;;;;;;16.50;12.75;;;;;23.74;48.28;101420.56;4999679;28;59839;-75
2021/06/05 03:38:51;;;;;;;;;12.50;11.00;;;;;23.72;49.30;101414.38;4982690;28;45278;-75
2021/06/05 03:41:17;;;;;;;;;18.75;14.50;;;;;23.72;48.85;101415.28;4982163;28;59220;-75
2021/06/05 03:43:42;;;;;;;;;13.75;12.00;;;;;23.77;48.64;101415.97;4974928;28;45194;-75
2021/06/05 03:46:08;;;;;;;;;13.00;12.50;;;;;23.80;47.70;101409.66;4982713;28;54548;-75
2021/06/05 03:48:34;;;;;;;;;14.50;11.50;;;;;23.80;46.94;101415.84;5000348;28;45456;-75
2021/06/05 03:50:59;;;;;;;;;13.25;12.00;;;;;23.76;47.28;101410.72;4962943;28;47018;-75
2021/06/05 03:53:25;;;;;;;;;14.50;11.50;;;;;23.73;47.21;101416.16;4958746;28;60152;-75
2021/06/05 03:55:50;;;;;;;;;16.00;13.00;;;;;23.72;46.58;101415.28;4983341;28;49441;-75
2021/06/05 03:58:21;;;;;;;;;17.50;14.75;;;;;23.74;46.51;101420.56;4958864;28;45471;-75
2021/06/05 04:00:47;;;;;;;;;10.50;10.50;;;;;23.76;46.28;101418.69;4992953;28;45299;-75
2021/06/05 04:03:12;;;;;;;;;12.25;10.75;;;;;23.78;46.06;101422.19;4965919;28;55630;-75
2021/06/05 04:05:38;;;;;;;;;18.00;13.25;;;;;23.78;46.14;101411.50;4966477;28;45541;-75
2021/06/05 04:08:05;;;;;;;;;17.00;13.75;;;;;23.79;45.79;101421.25;4966389;28;45291;-75
2021/06/05 04:10:30;;;;;;;;;16.00;14.00;;;;;23.74;45.73;101421.44;4982380;28;45364;-75
2021/06/05 04:12:57;;;;;;;;;13.50;12.75;;;;;23.74;45.61;101424.09;4955313;28;63256;-75
2021/06/05 04:15:24;;;;;;;;;14.00;10.25;;;;;23.72;45.90;101423.28;4969442;28;45422;-75
2021/06/05 04:18:05;;;;;;;;;14.00;12.25;;;;;23.71;45.39;101428.63;4982280;28;45555;-75
2021/06/05 04:20:30;;;;;;;;;14.75;13.50;;;;;23.68;45.67;101425.16;4999739;28;45420;-76
2021/06/05 04:22:56;;;;;;;;;12.00;10.75;;;;;23.65;45.55;101432.41;4957710;28;45319;-76
2021/06/05 04:25:21;;;;;;;;;15.00;13.25;;;;;23.61;45.39;101436.94;4971046;28;45999;-76
2021/06/05 04:27:47;;;;;;;;;13.50;13.00;;;;;23.55;45.58;101428.28;5001974;28;45461;-76
2021/06/05 04:30:13;;;;;;;;;13.25;13.25;;;;;23.50;45.57;101436.41;4965417;28;47141;-76
2021/06/05 04:32:39;;;;;;;;;14.00;11.25;;;;;23.50;45.44;101439.06;5009722;28;45353;-76
2021/06/05 04:35:06;;;;;;;;;14.00;12.00;;;;;23.48;45.56;101440.06;4985202;28;48127;-75
2021/06/05 04:37:31;;;;;;;;;14.25;13.50;;;;;23.39;45.03;101433.25;4965826;28;45462;-75
2021/06/05 04:39:57;;;;;;;;;9.75;9.75;;;;;23.36;45.17;101438.66;4997938;28;52926;-76
2021/06/05 04:42:22;;;;;;;;;10.75;9.50;;;;;23.34;45.94;101440.50;4998356;28;45965;-75
2021/06/05 04:44:47;;;;;;;;;11.75;11.00;;;;;23.32;45.29;101445.88;5016571;28;45270;-75
2021/06/05 04:47:13;;;;;;;;;9.50;9.50;;;;;23.33;45.69;101441.44;4969056;28;45265;-76
2021/06/05 04:49:38;;;;;;;;;8.75;8.75;;;;;23.33;45.48;101441.44;5001483;28;45389;-76
2021/06/05 04:52:05;;;;;;;;;11.75;10.50;;;;;23.33;45.61;101446.75;4983684;28;45263;-76
2021/06/05 04:54:31;;;;;;;;;12.75;9.25;;;;;23.35;45.13;101452.91;4966741;28;45397;-76
2021/06/05 04:56:59;;;;;;;;;12.00;11.00;;;;;23.36;44.76;101457.28;4969187;28;45306;-77
2021/06/05 04:59:25;;;;;;;;;14.50;12.25;;;;;23.35;45.21;101459.09;4970274;28;46138;-76
2021/06/05 05:01:58;;;;;;;;;12.25;10.25;;;;;23.32;45.14;101461.88;4993474;28;45279;-76
2021/06/05 05:04:23;;;;;;;;;10.75;10.75;;;;;23.28;45.01;101470.88;4984579;28;45449;-76
2021/06/05 05:06:49;;;;;;;;;13.00;12.25;;;;;23.28;45.17;101468.22;4980743;28;57148;-76
2021/06/05 05:09:14;;;;;;;;;9.50;9.50;;;;;23.28;45.15;101465.56;4987954;28;45263;-75
2021/06/05 05:11:43;;;;;;;;;11.00;10.75;;;;;23.26;45.53;101467.38;4968855;28;45205;-74
2021/06/05 05:14:09;;;;;;;;;14.25;11.00;;;;;23.25;45.46;101475.41;5000536;28;45210;-75
2021/06/05 05:16:34;;;;;;;;;9.75;9.75;;;;;23.23;45.51;101474.59;5018422;28;45449;-75
2021/06/05 05:19:00;;;;;;;;;8.75;8.75;;;;;23.25;45.54;101484.28;5019582;28;46766;-76
2021/06/05 05:21:26;;;;;;;;;8.50;8.50;;;;;23.26;45.98;101487.81;5013405;28;45455;-75
2021/06/05 05:24:02;;;;;;;;;9.75;9.75;;;;;23.25;45.74;101488.75;5004323;28;45321;-76
2021/06/05 05:26:27;;;;;;;;;9.25;9.25;;;;;23.24;45.94;101495.88;4973480;28;45837;-75
2021/06/05 05:28:54;;;;;;;;;11.50;9.00;;;;;23.17;45.94;101485.44;4984604;28;48920;-76
2021/06/05 05:31:21;;;;;;;;;9.00;8.50;;;;;23.21;45.78;101506.63;4997551;28;45349;-75
2021/06/05 05:33:46;;;;;;;;;10.25;9.00;;;;;23.23;45.64;101510.09;4988417;28;45243;-75
2021/06/05 05:36:24;;;;;;;;;10.50;8.75;;;;;23.21;45.75;101509.28;4991453;28;49546;-75
2021/06/05 05:38:49;;;;;;;;;12.75;9.50;;;;;23.24;45.77;101516.28;4990588;28;46128;-77
2021/06/05 05:41:15;;;;;;;;;10.75;10.00;;;;;23.23;45.99;101511.91;5017038;28;67449;-74
2021/06/05 05:43:41;;;;;;;;;14.00;12.25;;;;;23.18;45.73;101512.03;4984547;28;45466;-75
2021/06/05 05:46:14;;;;;;;;;12.50;12.25;;;;;23.18;46.09;101525.34;4985924;28;65236;-74
2021/06/05 05:48:39;;;;;;;;;12.50;8.50;;;;;23.16;46.30;101527.19;5006281;28;47168;-77
2021/06/05 05:51:05;;;;;;;;;11.50;10.50;;;;;23.12;47.06;101529.06;5017922;28;51485;-72
2021/06/05 05:53:31;;;;;;;;;11.50;10.00;;;;;23.11;47.50;101527.34;4968320;28;45282;-71
2021/06/05 05:55:57;;;;;;;;;9.50;9.50;;;;;23.18;48.11;101528.00;4984342;28;45485;-72
2021/06/05 05:58:27;;;;;;;;;11.75;10.75;;;;;23.24;47.34;101533.16;4977859;28;47152;-72
2021/06/05 06:00:53;;;;;;;;;9.25;8.25;;;;;23.27;47.25;101533.03;5009618;28;45311;-72
2021/06/05 06:03:19;;;;;;;;;8.25;7.50;;;;;23.32;48.09;101543.56;4994917;28;45193;-77
2021/06/05 06:05:44;;;;;;;;;8.25;7.00;;;;;23.35;47.38;101547.00;4967616;28;46192;-75
2021/06/05 06:08:10;;;;;;;;;11.75;10.00;;;;;23.39;46.97;101553.13;4983514;28;46526;-76
2021/06/05 06:10:36;;;;;;;;;7.00;7.00;;;;;23.36;47.17;101548.75;5000642;28;45316;-74
2021/06/05 06:13:02;;;;;;;;;11.50;8.75;;;;;23.37;47.09;101544.31;5003792;28;45375;-75
2021/06/05 06:15:28;;;;;;;;;8.50;6.75;;;;;23.40;46.83;101546.88;4987032;28;45340;-80
2021/06/05 06:17:53;;;;;;;;;7.00;7.00;;;;;23.42;47.33;101559.22;5011448;28;45413;-76
2021/06/05 06:20:27;;;;;;;;;10.25;9.75;;;;;23.41;46.74;101549.47;4983779;28;45441;-77
2021/06/05 06:22:53;;;;;;;;;8.00;8.00;;;;;23.41;46.54;101551.28;5001665;28;45401;-76
2021/06/05 06:25:21;;;;;;;;;9.50;7.75;;;;;23.41;47.15;101551.28;4983693;28;45308;-81
2021/06/05 06:27:47;;;;;;;;;9.00;9.00;;;;;23.37;46.86;101541.66;4983484;28;45727;-77
2021/06/05 06:30:15;;;;;;;;;9.50;8.00;;;;;23.37;47.00;101553.19;4984278;28;45406;-76
2021/06/05 06:32:40;;;;;;;;;7.75;7.75;;;;;23.33;46.88;101548.84;5000781;28;45371;-79
2021/06/05 06:35:09;;;;;;;;;9.00;7.00;;;;;23.37;46.97;101560.28;4996275;28;64677;-86
2021/06/05 06:37:37;;;;;;;;;7.75;6.00;;;;;23.36;47.30;101558.53;4991798;28;47171;-77
2021/06/05 06:40:03;;;;;;;;;8.25;7.00;;;;;23.38;46.76;101562.03;4982978;28;46225;-78
2021/06/05 06:42:31;;;;;;;;;9.25;8.25;;;;;23.38;46.54;101559.38;5013305;28;45162;-77
2021/06/05 06:44:57;;;;;;;;;7.75;7.75;;;;;23.38;46.89;101573.56;5020892;28;45479;-76
2021/06/05 06:47:23;;;;;;;;;8.00;8.00;;;;;23.42;46.38;101574.34;5003329;28;45832;-77
2021/06/05 06:49:48;;;;;;;;;7.00;6.25;;;;;23.41;46.93;101568.13;5003338;28;45311;-75
2021/06/05 06:52:14;;;;;;;;;9.75;7.00;;;;;23.41;46.94;101575.25;4988330;28;45420;-76
2021/06/05 06:55:04;;;;;;;;;10.00;7.75;;;;;23.39;46.76;101577.09;5001128;28;45427;-80
2021/06/05 06:57:28;;;;;;;;;10.50;9.50;;;;;23.35;47.38;101573.63;4985907;28;46093;-76
2021/06/05 06:59:54;;;;;;;;;7.00;6.00;;;;;23.36;47.13;101570.06;5007138;28;45143;-77
2021/06/05 07:02:19;;;;;;;;;8.00;7.25;;;;;23.37;46.53;101584.28;5005846;28;45562;-77
2021/06/05 07:04:44;;;;;;;;;8.50;7.50;;;;;23.33;46.04;101574.63;5001583;28;45420;-76
2021/06/05 07:07:10;;;;;;;;;7.00;7.00;;;;;23.29;46.70;101583.63;5003935;28;65888;-77
2021/06/05 07:09:35;;;;;;;;;5.75;5.75;;;;;23.32;46.61;101583.53;4997825;28;45318;-75
2021/06/05 07:12:01;;;;;;;;;8.50;7.25;;;;;23.32;46.62;101583.53;4998754;28;45884;-76
2021/06/05 07:14:26;;;;;;;;;8.00;7.25;;;;;23.32;47.25;101581.72;5010324;28;45340;-75
2021/06/05 07:16:52;;;;;;;;;9.00;7.00;;;;;23.32;47.07;101581.72;4998568;28;48725;-76
2021/06/05 07:19:18;;;;;;;;;7.00;7.00;;;;;23.32;46.57;101578.19;4995504;28;45484;-77
2021/06/05 07:21:43;;;;;;;;;6.25;6.00;;;;;23.29;46.51;101579.16;5002371;28;45491;-78
2021/06/05 07:24:09;;;;;;;;;10.25;8.50;;;;;23.33;47.04;101583.47;4981836;28;61640;-78
2021/06/05 07:26:34;;;;;;;;;9.75;7.00;;;;;23.30;46.81;101580.91;4994856;28;46047;-79
2021/06/05 07:29:02;;;;;;;;;9.75;9.75;;;;;23.34;47.21;101592.34;5013982;28;45451;-78
2021/06/05 07:31:29;;;;;;;;;12.25;9.75;;;;;23.36;46.89;101591.34;4982545;28;45285;-80
2021/06/05 07:33:55;;;;;;;;;9.25;9.00;;;;;23.41;47.51;101588.56;4982749;28;45511;-77
2021/06/05 07:36:29;;;;;;;;;8.00;7.75;;;;;23.44;46.91;101591.13;5000290;28;46217;-78
2021/06/05 07:38:54;;;;;;;;;8.50;8.50;;;;;23.48;46.55;101592.81;4982922;28;45231;-78
2021/06/05 07:41:19;;;;;;;;;11.50;9.50;;;;;23.48;46.68;101603.47;4998555;28;58096;-78
2021/06/05 07:43:45;;;;;;;;;9.00;7.00;;;;;23.42;47.05;101587.66;4981805;28;69598;-78
2021/06/05 07:46:10;;;;;;;;;8.75;7.50;;;;;23.40;46.29;101586.84;4999260;28;64534;-78
2021/06/05 07:48:36;;;;;;;;;11.00;11.00;;;;;23.39;46.19;101582.44;4966146;28;52554;-78
2021/06/05 07:51:02;;;;;;;;;10.75;10.00;;;;;23.39;46.87;101585.09;4984126;28;45383;-79
2021/06/05 07:53:28;;;;;;;;;9.75;8.50;;;;;23.41;46.64;101586.78;5000305;28;45491;-77
2021/06/05 07:55:53;;;;;;;;;11.00;11.00;;;;;23.39;46.94;101596.63;4965893;28;45418;-78
2021/06/05 07:58:19;;;;;;;;;7.75;7.75;;;;;23.36;46.49;101593.16;5000259;28;45313;-79
2021/06/05 08:00:44;;;;;;;;;8.00;8.00;;;;;23.37;46.75;101590.47;5009452;28;45242;-79
2021/06/05 08:03:10;;;;;;;;;7.50;7.00;;;;;23.40;46.94;101597.50;4966395;28;45294;-78
2021/06/05 08:05:36;;;;;;;;;8.75;8.50;;;;;23.42;46.93;101596.50;4978997;28;47079;-78
2021/06/05 08:08:02;;;;;;;;;6.50;6.00;;;;;23.44;47.19;101595.59;5000260;28;45195;-79
2021/06/05 08:10:28;;;;;;;;;7.75;7.75;;;;;23.44;46.43;101588.47;4966024;28;45442;-78
2021/06/05 08:12:53;;;;;;;;;11.00;9.00;;;;;23.45;46.54;101594.66;4990672;28;45393;-77
2021/06/05 08:15:24;;;;;;;;;8.50;8.00;;;;;23.44;46.14;101596.47;4985467;28;55372;-78
2021/06/05 08:17:53;;;;;;;;;7.50;7.25;;;;;23.45;46.46;101600.88;4982440;28;45388;-78
2021/06/05 08:20:20;;;;;;;;;8.25;7.75;;;;;23.49;46.89;101601.66;4982684;28;45198;-79
2021/06/05 08:22:45;;;;;;;;;7.25;6.50;;;;;23.52;46.12;101599.75;4992001;28;45522;-79
2021/06/05 08:25:14;;;;;;;;;9.00;8.00;;;;;23.53;46.26;101598.84;4981293;28;66064;-79
2021/06/05 08:27:41;;;;;;;;;8.75;7.75;;;;;23.53;46.27;101596.19;4959388;28;45421;-79
2021/06/05 08:30:15;;;;;;;;;9.75;8.00;;;;;23.52;46.52;101599.75;4973173;28;45499;-79
2021/06/05 08:32:40;;;;;;;;;9.50;9.00;;;;;23.53;45.87;101603.31;4970826;28;45281;-78
2021/06/05 08:35:06;;;;;;;;;7.25;6.25;;;;;23.54;46.14;101618.38;4983931;28;46195;-79
2021/06/05 08:37:31;;;;;;;;;10.00;9.00;;;;;23.52;46.20;101597.09;5010332;28;45242;-78
2021/06/05 08:40:00;;;;;;;;;11.00;9.00;;;;;23.56;46.27;101600.56;4985608;28;45286;-78
2021/06/05 08:42:48;;;;;;;;;9.25;9.25;;;;;23.58;46.35;101602.25;4985712;28;45495;-78
2021/06/05 08:45:17;;;;;;;;;12.25;9.25;;;;;23.60;45.72;101600.44;4980588;28;46310;-79
2021/06/05 08:47:42;;;;;;;;;7.00;7.00;;;;;23.60;45.67;101589.78;5007597;28;45176;-78
2021/06/05 08:50:11;;;;;;;;;12.25;8.25;;;;;23.63;45.84;101595.03;5002629;28;56492;-79
2021/06/05 08:53:03;;;;;;;;;7.25;7.00;;;;;23.65;45.95;101584.31;5004935;28;45325;-78
2021/06/05 08:55:39;;;;;;;;;8.25;8.00;;;;;23.68;45.64;101586.88;4988752;28;45608;-77
2021/06/05 08:58:10;;;;;;;;;10.50;10.00;;;;;23.71;45.53;101581.44;4977147;28;45320;-78
2021/06/05 09:00:43;;;;;;;;;7.75;7.00;;;;;23.79;45.78;101582.06;4995330;28;45323;-79
2021/06/05 09:03:21;;;;;;;;;9.50;8.50;;;;;23.83;45.53;101589.06;4962508;28;45361;-79
2021/06/05 09:05:50;;;;;;;;;9.75;8.25;;;;;23.89;45.26;101593.28;4988988;28;47288;-79
2021/06/05 09:08:19;;;;;;;;;10.00;8.00;;;;;23.94;45.66;101588.69;4997688;28;45330;-79
2021/06/05 09:10:55;;;;;;;;;8.75;8.75;;;;;23.98;45.42;101595.69;5004288;28;45381;-79
2021/06/05 09:13:20;;;;;;;;;9.25;7.75;;;;;24.01;45.27;101602.72;4970150;28;45239;-78
2021/06/05 09:15:46;;;;;;;;;8.00;6.50;;;;;24.02;45.49;101593.78;4971778;28;48333;-78
2021/06/05 09:18:12;;;;;;;;;7.00;7.00;;;;;24.04;45.33;101598.13;4972003;28;45390;-78
2021/06/05 09:20:38;;;;;;;;;8.00;6.00;;;;;24.05;45.00;101599.88;5004648;28;45361;-78
2021/06/05 09:23:21;;;;;;;;;6.00;6.00;;;;;24.07;44.68;101605.19;5009385;28;45480;-78
2021/06/05 09:25:47;;;;;;;;;8.00;8.00;;;;;24.04;44.19;101605.25;5011090;28;45495;-78
2021/06/05 09:28:33;;;;;;;;;11.25;9.50;;;;;24.01;45.03;101602.72;4989741;28;69180;-83
2021/06/05 09:31:21;;;;;;;;;10.00;10.00;;;;;24.04;44.82;101600.81;5005001;28;45194;-80
2021/06/05 09:33:46;;;;;;;;;19.25;17.25;;;;;24.05;45.11;101610.53;4984309;28;45473;-78
2021/06/05 09:36:34;;;;;;;;;8.75;7.75;;;;;24.10;44.40;101611.28;4968316;28;45409;-78
2021/06/05 09:39:08;;;;;;;;;11.00;9.75;;;;;24.13;44.64;101603.16;4981083;28;45351;-79
2021/06/05 09:41:34;;;;;;;;;9.25;7.50;;;;;24.17;44.20;101607.50;4987193;28;45464;-77
2021/06/05 09:44:27;;;;;;;;;7.25;6.25;;;;;24.19;44.24;101604.75;5010360;28;45467;-79
2021/06/05 09:47:01;;;;;;;;;8.00;7.50;;;;;24.18;44.46;101611.91;4994888;28;45355;-77
2021/06/05 09:49:45;;;;;;;;;7.75;7.00;;;;;24.19;44.25;101620.78;4952028;28;45355;-79
2021/06/05 09:52:11;;;;;;;;;8.00;7.50;;;;;24.19;44.05;101608.31;4987721;28;45441;-77
2021/06/05 09:54:48;;;;;;;;;12.75;9.50;;;;;24.20;44.39;101611.84;4985427;28;45951;-78
2021/06/05 09:57:24;;;;;;;;;9.50;8.00;;;;;24.19;44.59;101616.31;4953048;28;45493;-78
2021/06/05 09:59:58;;;;;;;;;7.00;5.75;;;;;24.21;44.83;101617.13;4987594;28;45484;-76
2021/06/05 10:02:24;;;;;;;;;9.75;7.75;;;;;24.22;44.16;101604.66;5001662;28;45508;-76
2021/06/05 10:05:30;;;;;;;;;7.25;6.25;;;;;24.24;45.46;101611.69;4968216;28;45333;-77
2021/06/05 10:07:57;;;;;;;;;9.00;7.50;;;;;24.27;44.44;101617.84;4995713;28;48084;-78
2021/06/05 10:10:39;;;;;;;;;11.00;8.50;;;;;24.28;44.68;101608.91;4985939;28;46541;-83
2021/06/05 10:13:13;;;;;;;;;8.25;6.25;;;;;24.25;44.86;101615.25;4984378;28;45290;-76
2021/06/05 10:15:52;;;;;;;;;9.50;9.00;;;;;24.28;45.25;101616.91;4982156;28;45334;-80
2021/06/05 10:18:20;;;;;;;;;8.75;8.75;;;;;24.30;45.57;101613.25;4984236;28;45304;-81
2021/06/05 10:21:00;;;;;;;;;7.50;6.25;;;;;24.35;45.50;101621.16;4974572;28;45407;-80
2021/06/05 10:23:27;;;;;;;;;9.75;9.75;;;;;24.36;45.25;101617.56;4971591;28;45385;-82
2021/06/05 10:26:01;;;;;;;;;10.75;10.75;;;;;24.36;44.63;101615.78;4967890;28;45317;-78
2021/06/05 10:28:35;;;;;;;;;9.25;9.00;;;;;24.40;44.75;101611.19;4983485;28;46292;-79
2021/06/05 10:31:07;;;;;;;;;15.50;14.00;;;;;24.41;44.63;101618.25;4969065;28;45302;-78
2021/06/05 10:33:40;;;;;;;;;9.75;9.75;;;;;24.41;45.02;101623.59;5002203;28;45463;-83
2021/06/05 10:36:35;;;;;;;;;12.25;11.00;;;;;24.41;45.27;101626.28;4996907;28;45432;-76
2021/06/05 10:39:11;;;;;;;;;10.00;10.00;;;;;24.41;45.04;101627.16;4998888;28;45324;-75
2021/06/05 10:41:42;;;;;;;;;11.50;9.50;;;;;24.39;44.79;101623.66;4999855;28;45374;-77
2021/06/05 10:44:08;;;;;;;;;11.25;11.25;;;;;24.36;44.56;101614.91;4983342;28;45286;-77
2021/06/05 10:46:52;;;;;;;;;10.25;10.25;;;;;24.38;44.84;101615.72;4983650;28;45261;-79
2021/06/05 10:49:25;;;;;;;;;12.00;12.00;;;;;24.40;45.30;101617.41;4996871;28;48399;-77
2021/06/05 10:51:57;;;;;;;;;8.25;8.25;;;;;24.41;45.27;101612.94;4997972;28;45341;-84
2021/06/05 10:54:25;;;;;;;;;11.25;9.25;;;;;24.42;45.32;101615.56;4987386;28;45597;-73
2021/06/05 10:56:58;;;;;;;;;9.00;9.00;;;;;24.42;45.25;101623.56;4987749;28;45239;-78
2021/06/05 10:59:38;;;;;;;;;10.25;10.00;;;;;24.43;44.89;101619.09;5002482;28;47257;-78
2021/06/05 11:02:03;;;;;;;;;10.00;9.00;;;;;24.41;44.91;101620.94;5009430;28;45245;-78
2021/06/05 11:04:31;;;;;;;;;10.25;9.50;;;;;24.40;44.77;101617.41;5003128;28;45256;-79
2021/06/05 11:07:03;;;;;;;;;9.25;8.00;;;;;24.40;45.00;101616.53;4989562;28;45436;-77
2021/06/05 11:09:29;;;;;;;;;8.00;7.25;;;;;24.38;45.25;101616.59;4995009;28;45982;-80
2021/06/05 11:12:13;;;;;;;;;10.50;9.75;;;;;24.37;45.21;101609.50;5015356;28;45368;-81
2021/06/05 11:14:45;;;;;;;;;12.50;10.25;;;;;24.36;45.04;101618.44;4992379;28;45444;-80
2021/06/05 11:17:30;;;;;;;;;9.25;9.25;;;;;24.35;44.64;101618.50;4999274;28;45199;-81
2021/06/05 11:20:19;;;;;;;;;9.75;8.75;;;;;24.34;45.21;101616.75;5009419;28;46650;-80
2021/06/05 11:22:47;;;;;;;;;12.25;11.50;;;;;24.33;44.94;101609.69;5000315;28;45608;-82
2021/06/05 11:25:14;;;;;;;;;12.25;9.25;;;;;24.32;45.03;101615.91;5000583;28;45393;-82